Time;durP1;ratioP1;P1;durP2;ratioP2;P2;SDS_P1;SDS_P2;PMS_P1;PMS_P2;Temp;Humidity;BMP_temperature;BMP_pressure;BME280_temperature;BME280_humidity;BME280_pressure;Samples;Min_cycle;Max_cycle;Signal;HPM_P1;HPM_P2
2022/04/01 00:02:17;;;;;;;8.40;7.60;;;;;;;2.38;79.25;100008.47;3573003;40;20052;-63
2022/04/01 00:04:42;;;;;;;9.25;7.18;;;;;;;2.43;79.41;100013.59;3567232;40;21667;-63
2022/04/01 00:07:08;;;;;;;9.10;6.57;;;;;;;2.35;78.92;100005.06;3573907;40;20054;-63
2022/04/01 00:09:34;;;;;;;7.38;6.40;;;;;;;2.34;79.30;100001.56;3566584;40;20057;-64
2022/04/01 00:12:00;;;;;;;8.60;7.60;;;;;;;2.38;80.33;100016.44;3571930;40;20081;-63
2022/04/01 00:14:26;;;;;;;6.93;6.22;;;;;;;2.35;79.27;100013.03;3567012;40;20052;-63
2022/04/01 00:16:52;;;;;;;8.95;6.55;;;;;;;2.35;79.50;100024.53;3567070;40;20110;-63
2022/04/01 00:19:20;;;;;;;6.22;5.63;;;;;;;2.35;79.10;100016.56;3569865;40;20311;-63
2022/04/01 00:21:46;;;;;;;7.00;5.63;;;;;;;2.33;79.40;100026.34;3570125;40;20068;-64
2022/04/01 00:24:11;;;;;;;6.70;5.68;;;;;;;2.30;80.25;100032.66;3573257;40;20392;-63
2022/04/01 00:26:37;;;;;;;5.88;5.25;;;;;;;2.24;78.86;100027.59;3564484;40;20064;-63
2022/04/01 00:29:14;;;;;;;6.50;5.90;;;;;;;2.22;79.37;100023.25;3572016;40;20115;-63
2022/04/01 00:31:41;;;;;;;6.32;4.97;;;;;;;2.22;79.19;100028.56;3562074;40;20041;-62
2022/04/01 00:34:16;;;;;;;5.75;5.18;;;;;;;2.14;79.82;100030.69;3569492;40;20071;-63
2022/04/01 00:36:48;;;;;;;5.88;5.07;;;;;;;1.93;79.90;99997.94;3571971;40;20108;-63
2022/04/01 00:39:17;;;;;;;5.35;4.85;;;;;;;2.11;79.28;100049.34;3571481;40;20071;-63
2022/04/01 00:41:45;;;;;;;5.38;4.85;;;;;;;2.08;79.99;100034.44;3565286;40;20144;-63
2022/04/01 00:44:15;;;;;;;4.95;4.50;;;;;;;2.05;80.25;100031.91;3572130;40;20072;-62
2022/04/01 00:46:53;;;;;;;8.57;4.90;;;;;;;2.03;80.32;100050.53;3561746;40;20056;-62
2022/04/01 00:49:23;;;;;;;7.60;5.07;;;;;;;2.06;79.36;100045.13;3564976;40;20090;-62
2022/04/01 00:51:53;;;;;;;7.10;5.00;;;;;;;2.00;79.84;100050.66;3572668;40;20148;-62
2022/04/01 00:54:19;;;;;;;5.32;4.82;;;;;;;1.80;80.46;100026.69;3570895;40;20064;-64
2022/04/01 00:56:45;;;;;;;5.60;4.88;;;;;;;1.97;80.42;100048.13;3567209;40;20768;-62
2022/04/01 00:59:11;;;;;;;5.57;5.07;;;;;;;2.01;80.31;100052.38;3575645;40;20052;-62
2022/04/01 01:01:40;;;;;;;8.38;5.45;;;;;;;2.01;79.72;100054.16;3572475;40;20075;-61
2022/04/01 01:04:08;;;;;;;5.40;4.90;;;;;;;2.00;80.48;100055.09;3564219;40;20122;-62
2022/04/01 01:06:43;;;;;;;5.22;4.57;;;;;;;2.03;80.31;100055.84;3566756;40;20587;-62
2022/04/01 01:09:11;;;;;;;6.00;5.00;;;;;;;1.98;79.88;100055.13;3575777;40;20056;-62
2022/04/01 01:11:38;;;;;;;7.07;5.15;;;;;;;1.94;80.20;100050.03;3566685;40;20097;-62
2022/04/01 01:14:08;;;;;;;5.30;4.80;;;;;;;1.92;80.03;100041.25;3574114;40;20082;-62
2022/04/01 01:16:53;;;;;;;6.20;5.13;;;;;;;1.95;80.07;100065.84;3573521;40;20150;-61
2022/04/01 01:19:20;;;;;;;5.97;4.75;;;;;;;1.92;80.29;100060.69;3565447;40;20044;-62
2022/04/01 01:21:50;;;;;;;5.70;5.10;;;;;;;1.94;79.88;100068.59;3568308;40;20068;-61
2022/04/01 01:24:17;;;;;;;7.88;5.53;;;;;;;1.88;80.66;100055.56;3571429;40;20052;-62
2022/04/01 01:26:51;;;;;;;6.53;5.10;;;;;;;1.92;79.94;100060.69;3567894;40;20067;-61
2022/04/01 01:29:24;;;;;;;5.10;4.60;;;;;;;1.90;80.49;100065.16;3575450;40;20044;-62
2022/04/01 01:31:49;;;;;;;5.13;4.63;;;;;;;1.83;80.94;100053.06;3573831;40;20671;-62
2022/04/01 01:34:16;;;;;;;4.97;4.10;;;;;;;1.90;80.26;100059.84;3569546;40;20052;-61
2022/04/01 01:36:42;;;;;;;6.32;4.68;;;;;;;1.90;80.51;100062.50;3557620;40;20185;-61
2022/04/01 01:39:07;;;;;;;5.15;4.40;;;;;;;1.88;79.76;100056.44;3575894;40;20044;-62
2022/04/01 01:41:33;;;;;;;5.20;4.50;;;;;;;1.89;80.20;100063.44;3566534;40;20112;-62
2022/04/01 01:43:59;;;;;;;4.70;4.07;;;;;;;1.90;79.78;100066.94;3574451;40;20057;-62
2022/04/01 01:46:24;;;;;;;5.78;4.75;;;;;;;1.88;80.90;100063.50;3573812;40;20072;-62
2022/04/01 01:48:50;;;;;;;4.78;4.10;;;;;;;1.92;80.84;100057.16;3574132;40;20074;-62
2022/04/01 01:56:45;;;;;;;;;;;;;;;1.41;80.29;100003.47;3566800;40;20309;-62
2022/04/01 01:59:11;;;;;;;5.93;4.75;;;;;;;1.87;80.55;100070.56;3573966;40;19928;-62
2022/04/01 02:01:42;;;;;;;5.13;4.38;;;;;;;1.85;80.19;100081.25;3572913;40;20409;-62
2022/04/01 02:04:09;;;;;;;5.57;4.78;;;;;;;1.88;80.06;100074.13;3574710;40;20061;-62
2022/04/01 02:06:35;;;;;;;5.93;4.90;;;;;;;1.80;80.24;100074.38;3566302;40;20098;-63
2022/04/01 02:09:02;;;;;;;6.63;4.93;;;;;;;1.91;79.41;100085.47;3574450;40;20101;-62
2022/04/01 02:11:28;;;;;;;5.35;4.82;;;;;;;1.54;79.81;100020.59;3575662;40;20064;-62
2022/04/01 02:13:54;;;;;;;4.45;4.05;;;;;;;1.91;80.30;100080.16;3565918;40;20339;-62
2022/04/01 02:16:21;;;;;;;5.15;4.28;;;;;;;1.94;80.03;100085.34;3574343;40;20159;-62
2022/04/01 02:18:49;;;;;;;4.78;4.38;;;;;;;1.95;80.25;100080.91;3574578;40;20510;-62
2022/04/01 02:21:15;;;;;;;5.57;4.57;;;;;;;1.96;79.69;100085.25;3575686;40;20055;-62
2022/04/01 02:23:45;;;;;;;6.25;4.88;;;;;;;1.97;79.80;100092.31;3564670;40;20355;-62
2022/04/01 02:26:12;;;;;;;5.35;4.85;;;;;;;1.95;79.54;100099.44;3577081;40;20059;-62
2022/04/01 02:28:40;;;;;;;4.63;4.20;;;;;;;1.96;78.80;100102.03;3569947;40;20237;-62
2022/04/01 02:31:06;;;;;;;5.18;4.68;;;;;;;1.95;79.67;100102.09;3577679;40;20426;-62
2022/04/01 02:33:34;;;;;;;4.28;3.78;;;;;;;2.04;79.43;100101.75;3576256;40;20171;-61
2022/04/01 02:36:02;;;;;;;4.47;4.07;;;;;;;2.00;78.71;100108.97;3577092;40;20054;-62
2022/04/01 02:38:30;;;;;;;4.60;4.20;;;;;;;1.97;79.67;100102.91;3566352;40;20054;-62
2022/04/01 02:40:57;;;;;;;5.00;4.50;;;;;;;2.01;79.27;100115.13;3577305;40;20667;-62
2022/04/01 02:43:25;;;;;;;4.97;4.28;;;;;;;2.05;78.94;100117.59;3574954;40;20071;-61
2022/04/01 02:45:51;;;;;;;5.38;4.38;;;;;;;1.97;78.40;100119.69;3570984;40;20071;-62
2022/04/01 02:48:20;;;;;;;5.50;4.63;;;;;;;2.00;78.80;100122.22;3578736;40;20056;-62
2022/04/01 02:50:48;;;;;;;5.07;4.57;;;;;;;1.99;79.58;100128.41;3574863;40;20918;-62
2022/04/01 02:53:17;;;;;;;5.68;4.60;;;;;;;1.99;79.58;100128.41;3567892;40;20057;-62
2022/04/01 02:55:44;;;;;;;5.47;4.63;;;;;;;1.89;78.76;100115.59;3573164;40;20068;-62
2022/04/01 02:58:10;;;;;;;5.40;4.90;;;;;;;1.97;79.79;100132.06;3573767;40;20067;-62
2022/04/01 03:00:38;;;;;;;5.43;4.55;;;;;;;1.96;80.08;100139.13;3567029;40;20099;-61
2022/04/01 03:03:06;;;;;;;5.63;5.03;;;;;;;1.98;78.83;100137.31;3578227;40;20092;-61
2022/04/01 03:05:37;;;;;;;5.05;4.60;;;;;;;1.89;78.97;100121.75;3573980;40;20063;-61
2022/04/01 03:08:07;;;;;;;5.15;4.68;;;;;;;1.94;79.27;100141.00;3576647;40;20379;-63
2022/04/01 03:10:36;;;;;;;5.43;4.90;;;;;;;1.94;79.34;100148.94;3563870;40;20057;-61
2022/04/01 03:13:07;;;;;;;5.13;4.63;;;;;;;1.93;78.70;100139.25;3575102;40;20048;-63
2022/04/01 03:15:33;;;;;;;5.75;5.20;;;;;;;1.96;79.04;100139.13;3566975;40;20057;-61
2022/04/01 03:17:59;;;;;;;5.43;4.88;;;;;;;1.90;79.12;100149.97;3574514;40;20052;-61
2022/04/01 03:20:29;;;;;;;6.47;5.43;;;;;;;1.88;78.74;100146.53;3574079;39;20096;-61
2022/04/01 03:22:57;;;;;;;5.70;5.20;;;;;;;1.90;78.24;100138.50;3573150;40;20048;-61
2022/04/01 03:25:23;;;;;;;5.82;5.30;;;;;;;1.91;78.19;100157.00;3565430;40;20044;-61
2022/04/01 03:27:50;;;;;;;6.13;5.18;;;;;;;1.92;78.17;100165.81;3575302;40;20071;-61
2022/04/01 03:30:18;;;;;;;7.13;6.43;;;;;;;1.85;78.79;100149.28;3577148;40;20126;-60
2022/04/01 03:32:45;;;;;;;6.60;5.93;;;;;;;1.94;79.37;100171.94;3566082;40;20091;-60
2022/04/01 03:35:16;;;;;;;7.15;6.43;;;;;;;1.91;78.72;100172.06;3575269;40;20055;-61
2022/04/01 03:37:45;;;;;;;7.00;6.20;;;;;;;1.95;77.80;100174.53;3573690;40;20101;-60
2022/04/01 03:40:15;;;;;;;7.35;6.55;;;;;;;1.91;77.98;100175.56;3568178;40;20048;-61
2022/04/01 03:42:44;;;;;;;7.43;6.72;;;;;;;1.88;79.31;100167.72;3573663;40;20753;-60
2022/04/01 03:45:12;;;;;;;8.23;7.35;;;;;;;1.85;78.79;100174.00;3576817;40;20055;-60
2022/04/01 03:47:40;;;;;;;7.55;6.85;;;;;;;1.85;79.13;100176.66;3565572;40;20060;-61
2022/04/01 03:50:11;;;;;;;7.93;6.60;;;;;;;1.86;79.21;100180.16;3576830;40;20082;-60
2022/04/01 03:52:38;;;;;;;8.20;7.40;;;;;;;1.83;79.03;100181.13;3575248;39;20279;-62
2022/04/01 03:55:08;;;;;;;7.55;6.85;;;;;;;1.82;79.75;100178.53;3566793;40;20048;-61
2022/04/01 03:57:38;;;;;;;7.93;7.13;;;;;;;1.80;79.88;100186.53;3575024;40;20059;-61
2022/04/01 04:00:14;;;;;;;8.23;7.40;;;;;;;1.78;80.06;100182.25;3577530;40;20052;-61
2022/04/01 04:02:44;;;;;;;7.78;6.97;;;;;;;1.60;80.54;100163.41;3568026;40;20135;-60
2022/04/01 04:05:11;;;;;;;7.75;6.88;;;;;;;1.76;80.38;100194.66;3577840;40;20064;-61
2022/04/01 04:07:41;;;;;;;7.97;6.70;;;;;;;1.67;79.34;100174.66;3575108;40;20059;-61
2022/04/01 04:10:08;;;;;;;8.52;6.60;;;;;;;1.67;79.46;100184.38;3575262;40;20055;-61
2022/04/01 04:12:35;;;;;;;7.43;6.72;;;;;;;1.54;79.47;100171.56;3564844;40;20056;-61
2022/04/01 04:15:04;;;;;;;7.05;6.35;;;;;;;1.74;79.86;100207.09;3576419;40;20051;-61
2022/04/01 04:17:36;;;;;;;7.60;6.75;;;;;;;1.73;80.11;100211.53;3575847;40;20048;-61
2022/04/01 04:20:13;;;;;;;8.38;6.30;;;;;;;1.73;80.70;100218.63;3569222;40;20048;-62
2022/04/01 04:23:15;;;;;;;8.18;6.85;;;;;;;1.73;79.79;100223.91;3574466;40;20526;-62
2022/04/01 04:26:04;;;;;;;7.65;6.32;;;;;;;1.76;79.28;100226.47;3565603;40;20063;-62
2022/04/01 04:28:38;;;;;;;6.97;6.22;;;;;;;1.75;79.98;100235.34;3565210;40;20130;-62
2022/04/01 04:31:05;;;;;;;7.28;6.57;;;;;;;1.75;80.24;100236.19;3575083;40;20052;-62
2022/04/01 04:33:33;;;;;;;6.53;5.78;;;;;;;1.72;79.58;100233.66;3575026;40;20049;-61
2022/04/01 04:36:04;;;;;;;6.88;5.75;;;;;;;1.69;79.53;100231.13;3570920;40;20059;-61
2022/04/01 04:38:45;;;;;;;8.00;6.38;;;;;;;1.74;78.57;100239.75;3571967;40;20060;-60
2022/04/01 04:41:10;;;;;;;6.95;6.22;;;;;;;1.76;79.93;100250.31;3575705;40;20130;-60
2022/04/01 04:43:50;;;;;;;6.95;5.80;;;;;;;1.75;79.29;100240.63;3565296;40;20055;-60
2022/04/01 04:46:18;;;;;;;7.47;6.07;;;;;;;1.67;79.04;100248.84;3577508;40;20409;-60
2022/04/01 04:48:47;;;;;;;6.63;5.70;;;;;;;1.11;78.89;100148.34;3571908;40;20068;-60
2022/04/01 04:51:16;;;;;;;6.90;5.60;;;;;;;1.78;78.23;100262.59;3572437;40;20333;-60
2022/04/01 04:53:44;;;;;;;6.50;5.90;;;;;;;1.77;78.49;100270.56;3574002;40;20114;-61
2022/04/01 04:56:10;;;;;;;7.40;6.30;;;;;;;1.75;79.73;100277.72;3564887;40;20051;-60
2022/04/01 04:58:40;;;;;;;6.32;5.72;;;;;;;1.75;78.10;100275.09;3564330;40;20193;-61
2022/04/01 05:01:34;;;;;;;6.90;6.20;;;;;;;1.73;79.25;100276.91;3571534;40;20364;-61
2022/04/01 05:05:01;;;;;;;6.68;6.05;;;;;;;1.75;79.27;100283.88;3576535;40;20117;-61
2022/04/01 05:08:07;;;;;;;6.80;5.72;;;;;;;1.74;78.13;100297.16;3564529;40;20074;-60
2022/04/01 05:11:02;;;;;;;9.13;6.80;;;;;;;1.75;78.95;100298.94;3569667;40;20063;-60
2022/04/01 05:13:55;;;;;;;;;;;;;;;1.75;78.54;100310.38;3562526;40;20053;-59
2022/04/01 05:16:45;;;;;;;8.25;6.35;;;;;;;1.75;77.44;100315.69;3593721;23;20401;-61
2022/04/01 05:19:12;;;;;;;6.53;5.70;;;;;;;1.76;76.90;100312.09;3580246;40;20051;-62
2022/04/01 05:22:08;;;;;;;6.75;5.72;;;;;;;1.75;78.26;100314.81;3573969;40;20109;-62
2022/04/01 05:24:48;;;;;;;8.68;5.82;;;;;;;1.76;77.22;100316.53;3582272;39;20057;-62
2022/04/01 05:27:32;;;;;;;6.15;5.55;;;;;;;1.79;77.98;100316.44;3579236;40;20048;-61
2022/04/01 05:30:29;;;;;;;7.53;5.97;;;;;;;1.78;77.20;100330.63;3573145;39;20060;-62
2022/04/01 05:33:10;;;;;;;9.40;5.72;;;;;;;1.77;77.44;100328.88;3579498;40;20048;-63
2022/04/01 05:35:39;;;;;;;6.28;5.65;;;;;;;1.82;76.16;100325.16;3580552;40;20233;-62
2022/04/01 05:38:10;;;;;;;6.07;5.47;;;;;;;1.79;75.81;100338.50;3578551;40;20284;-63
2022/04/01 05:40:38;;;;;;;8.63;6.30;;;;;;;1.80;76.26;100342.88;3580434;40;20044;-62
2022/04/01 05:43:04;;;;;;;6.55;5.82;;;;;;;1.84;76.31;100336.56;3580893;40;20050;-62
2022/04/01 05:45:31;;;;;;;6.90;6.07;;;;;;;1.80;76.74;100345.53;3571936;39;20295;-62
2022/04/01 05:47:58;;;;;;;6.10;5.50;;;;;;;1.84;76.40;100355.13;3579562;40;20412;-62
2022/04/01 05:50:26;;;;;;;6.72;6.03;;;;;;;1.81;75.75;100357.00;3585439;40;20048;-61
2022/04/01 05:52:53;;;;;;;7.10;5.70;;;;;;;1.82;76.87;100371.97;3587979;40;20133;-62
2022/04/01 05:55:26;;;;;;;7.70;5.95;;;;;;;1.84;75.81;100370.16;3577998;40;20075;-62
2022/04/01 05:57:53;;;;;;;6.57;5.82;;;;;;;1.82;75.72;100377.28;3582108;39;20066;-64
2022/04/01 06:00:19;;;;;;;8.63;6.20;;;;;;;1.82;76.32;100385.25;3575509;39;20067;-62
2022/04/01 06:03:07;;;;;;;6.28;5.68;;;;;;;1.83;76.40;100384.31;3577675;39;20484;-63
2022/04/01 06:05:53;;;;;;;9.10;5.93;;;;;;;1.82;75.18;100380.81;3579946;40;20063;-64
2022/04/01 06:08:49;;;;;;;6.82;5.72;;;;;;;1.85;75.40;100386.00;3583988;40;20048;-62
2022/04/01 06:11:30;;;;;;;8.60;6.00;;;;;;;1.80;75.20;100400.31;3579918;40;20056;-63
2022/04/01 06:14:09;;;;;;;8.68;5.38;;;;;;;1.76;75.82;100396.03;3583512;39;20048;-64
2022/04/01 06:16:48;;;;;;;7.85;5.35;;;;;;;1.81;76.24;100410.88;3576318;39;20109;-63
2022/04/01 06:19:31;;;;;;;6.47;5.32;;;;;;;1.78;75.17;100413.63;3582260;40;20047;-63
2022/04/01 06:22:18;;;;;;;8.70;5.65;;;;;;;1.78;75.68;100418.91;3586509;40;20052;-64
2022/04/01 06:25:12;;;;;;;5.82;5.10;;;;;;;1.81;74.65;100425.91;3587296;39;20630;-64
2022/04/01 06:27:50;;;;;;;;;;;;;;;1.75;76.00;100434.06;3580955;40;20264;-63
2022/04/01 06:30:19;;;;;;;5.78;5.13;;;;;;;1.78;75.24;100431.31;3583810;40;20286;-62
2022/04/01 06:33:18;;;;;;;7.68;5.60;;;;;;;1.75;76.32;100439.34;3577202;40;20670;-64
2022/04/01 06:36:13;;;;;;;6.93;5.82;;;;;;;1.76;76.21;100451.69;3580854;39;20071;-64
2022/04/01 06:38:47;;;;;;;7.28;5.10;;;;;;;1.78;75.53;100441.91;3582425;40;20064;-63
2022/04/01 06:41:23;;;;;;;6.13;4.97;;;;;;;1.77;75.79;100445.44;3580481;40;20471;-62
2022/04/01 06:43:49;;;;;;;6.63;4.93;;;;;;;1.82;74.12;100459.44;3586363;39;20149;-63
2022/04/01 06:46:16;;;;;;;7.15;4.63;;;;;;;1.78;75.16;100471.06;3580031;39;20117;-62
2022/04/01 06:48:41;;;;;;;6.30;4.53;;;;;;;1.76;73.83;100481.69;3573848;39;20691;-64
2022/04/01 06:51:08;;;;;;;5.72;4.90;;;;;;;1.73;74.23;100475.63;3587699;39;20116;-63
2022/04/01 06:53:36;;;;;;;8.05;5.03;;;;;;;1.72;74.58;100472.09;3582174;40;20050;-64
2022/04/01 06:56:03;;;;;;;7.05;4.97;;;;;;;1.79;74.17;100486.03;3581476;40;20301;-63
2022/04/01 06:58:30;;;;;;;8.95;4.78;;;;;;;1.78;75.27;100487.81;3584438;39;20052;-62
2022/04/01 07:00:56;;;;;;;4.88;4.18;;;;;;;1.79;73.66;100486.03;3580889;40;20052;-63
2022/04/01 07:03:22;;;;;;;5.05;4.28;;;;;;;1.80;73.51;100485.09;3576144;39;20393;-62
2022/04/01 07:05:48;;;;;;;5.70;4.10;;;;;;;1.84;74.35;100494.72;3578991;39;20631;-64
2022/04/01 07:08:16;;;;;;;5.47;4.20;;;;;;;1.77;73.35;100496.66;3587573;40;20060;-62
2022/04/01 07:10:42;;;;;;;6.80;4.78;;;;;;;1.82;74.47;100499.19;3584119;40;20217;-64
2022/04/01 07:13:10;;;;;;;6.18;4.40;;;;;;;1.84;74.22;100500.00;3579756;40;20051;-63
2022/04/01 07:15:36;;;;;;;4.30;3.88;;;;;;;1.88;74.16;100500.78;3579504;39;20232;-64
2022/04/01 07:18:02;;;;;;;5.82;4.35;;;;;;;1.89;74.48;100508.66;3574206;39;20418;-63
2022/04/01 07:20:28;;;;;;;4.70;4.18;;;;;;;1.88;73.98;100506.94;3578208;40;20066;-62
2022/04/01 07:22:55;;;;;;;6.72;3.60;;;;;;;1.85;73.16;100504.38;3583709;40;20058;-63
2022/04/01 07:25:23;;;;;;;7.95;4.03;;;;;;;1.24;73.05;100400.31;3583333;40;20048;-63
2022/04/01 07:27:50;;;;;;;7.32;4.40;;;;;;;1.84;73.58;100516.78;3580570;40;20059;-64
2022/04/01 07:30:16;;;;;;;5.28;3.83;;;;;;;1.85;73.57;100515.84;3584701;39;20375;-62
2022/04/01 07:32:43;;;;;;;5.05;4.47;;;;;;;1.88;73.75;100528.16;3571011;39;20070;-63
2022/04/01 07:35:13;;;;;;;5.88;4.25;;;;;;;1.96;71.86;100519.94;3586216;39;20060;-64
2022/04/01 07:37:41;;;;;;;5.55;4.10;;;;;;;1.94;72.29;100530.59;3576499;39;20055;-63
2022/04/01 07:40:09;;;;;;;7.32;5.32;;;;;;;1.93;72.55;100526.19;3584473;40;20080;-63
2022/04/01 07:42:38;;;;;;;6.82;4.13;;;;;;;1.75;72.36;100510.91;3573944;40;20048;-64
2022/04/01 07:45:04;;;;;;;5.43;4.30;;;;;;;1.89;73.94;100527.22;3586025;39;20078;-64
2022/04/01 07:47:33;;;;;;;6.25;4.03;;;;;;;2.02;73.78;100546.25;3569585;39;20080;-61
2022/04/01 07:50:00;;;;;;;5.03;4.07;;;;;;;2.01;71.98;100558.66;3583888;39;20055;-63
2022/04/01 07:52:27;;;;;;;9.30;4.63;;;;;;;2.02;73.25;100551.56;3577517;40;20076;-64
2022/04/01 07:54:53;;;;;;;7.35;4.53;;;;;;;1.97;72.80;100548.22;3584755;39;20067;-63
2022/04/01 07:57:20;;;;;;;6.50;4.00;;;;;;;1.78;72.25;100524.06;3582416;40;20125;-64
2022/04/01 07:59:47;;;;;;;4.97;3.88;;;;;;;1.97;73.05;100562.31;3578830;40;20058;-62
2022/04/01 08:02:14;;;;;;;5.90;3.88;;;;;;;1.99;72.79;100557.81;3580555;39;20060;-61
2022/04/01 08:04:40;;;;;;;5.45;3.60;;;;;;;2.05;72.54;100573.53;3575280;39;20059;-62
2022/04/01 08:07:06;;;;;;;5.72;3.53;;;;;;;2.01;71.93;100558.66;3578155;40;20062;-63
2022/04/01 08:09:35;;;;;;;4.88;3.60;;;;;;;2.04;72.56;100570.94;3580459;40;20048;-63
2022/04/01 08:12:02;;;;;;;4.55;3.85;;;;;;;2.02;72.97;100570.97;3585070;39;20318;-63
2022/04/01 08:14:28;;;;;;;5.68;3.78;;;;;;;2.03;72.55;100575.41;3575404;40;20056;-61
2022/04/01 08:16:54;;;;;;;6.78;3.72;;;;;;;2.04;72.46;100582.41;3578550;39;20113;-63
2022/04/01 08:19:22;;;;;;;5.22;3.58;;;;;;;2.05;72.07;100591.25;3578636;39;20061;-61
2022/04/01 08:21:49;;;;;;;7.50;3.92;;;;;;;1.88;73.45;100565.25;3574146;39;20510;-63
2022/04/01 08:24:16;;;;;;;6.22;4.07;;;;;;;2.02;73.41;100592.19;3581719;40;20054;-63
2022/04/01 08:26:42;;;;;;;4.95;3.53;;;;;;;2.01;72.73;100592.25;3581133;40;20064;-64
2022/04/01 08:29:08;;;;;;;5.97;4.32;;;;;;;2.05;73.46;100594.75;3582176;40;20056;-64
2022/04/01 08:31:34;;;;;;;6.15;4.28;;;;;;;2.06;72.25;100603.56;3575729;40;20060;-63
2022/04/01 08:34:00;;;;;;;7.43;4.28;;;;;;;2.06;73.28;100606.22;3585249;40;20062;-65
2022/04/01 08:36:26;;;;;;;5.50;4.10;;;;;;;2.08;72.27;100607.91;3567045;39;20044;-62
2022/04/01 08:38:52;;;;;;;4.93;3.63;;;;;;;2.07;73.19;100611.50;3580879;40;20056;-64
2022/04/01 08:41:21;;;;;;;6.32;3.65;;;;;;;2.07;71.79;100624.75;3581968;40;20288;-62
2022/04/01 08:43:50;;;;;;;7.93;4.10;;;;;;;2.11;71.97;100627.31;3578727;40;20063;-64
2022/04/01 08:46:18;;;;;;;6.35;3.20;;;;;;;2.11;71.51;100625.53;3582333;40;20064;-63
2022/04/01 08:48:46;;;;;;;6.05;3.55;;;;;;;2.10;71.85;100634.41;3576573;40;20348;-64
2022/04/01 08:51:13;;;;;;;5.65;3.33;;;;;;;2.08;72.33;100641.50;3573508;39;20071;-63
2022/04/01 08:53:42;;;;;;;3.67;3.05;;;;;;;2.08;71.07;100636.22;3577678;39;20781;-64
2022/04/01 08:56:08;;;;;;;5.72;2.72;;;;;;;2.11;71.21;100645.88;3582755;40;20056;-63
2022/04/01 08:58:35;;;;;;;6.70;3.10;;;;;;;2.15;72.42;100653.66;3576518;40;21704;-63
2022/04/01 09:01:05;;;;;;;4.57;3.00;;;;;;;2.15;70.22;100645.72;3583117;40;20061;-63
2022/04/01 09:03:33;;;;;;;4.30;2.28;;;;;;;2.16;70.00;100655.44;3577048;40;20276;-63
2022/04/01 09:06:02;;;;;;;4.80;2.50;;;;;;;2.16;69.59;100659.84;3572279;39;20120;-63
2022/04/01 09:08:32;;;;;;;3.95;2.63;;;;;;;2.19;69.35;100662.41;3576448;40;20056;-62
2022/04/01 09:11:09;;;;;;;4.70;2.90;;;;;;;2.22;70.23;100664.94;3583743;40;20059;-64
2022/04/01 09:13:49;;;;;;;4.32;2.72;;;;;;;2.26;70.96;100663.97;3580699;40;20056;-64
2022/04/01 09:16:31;;;;;;;3.38;2.83;;;;;;;2.27;70.42;100677.16;3576486;39;20063;-62
2022/04/01 09:19:00;;;;;;;3.70;3.00;;;;;;;2.23;70.22;100661.41;3577936;40;20046;-64
2022/04/01 09:21:30;;;;;;;5.72;3.33;;;;;;;2.30;70.12;100682.38;3570490;40;20382;-63
2022/04/01 09:23:57;;;;;;;5.10;3.40;;;;;;;2.37;71.54;100682.19;3576550;40;20125;-64
2022/04/01 09:26:35;;;;;;;6.60;3.90;;;;;;;2.16;70.83;100635.97;3582901;40;20066;-63
2022/04/01 09:29:04;;;;;;;4.70;2.97;;;;;;;2.43;70.29;100677.56;3584118;39;20358;-64
2022/04/01 09:31:37;;;;;;;6.78;3.50;;;;;;;2.51;70.77;100686.19;3573011;40;20055;-64
2022/04/01 09:34:09;;;;;;;4.90;2.87;;;;;;;2.55;70.93;100685.16;3581943;40;20105;-64
2022/04/01 09:36:38;;;;;;;4.50;3.03;;;;;;;2.59;70.46;100690.38;3565538;39;20062;-65
2022/04/01 09:39:18;;;;;;;5.50;2.80;;;;;;;2.63;70.13;100681.38;3582037;40;20047;-65
2022/04/01 09:41:49;;;;;;;6.35;3.08;;;;;;;2.60;70.01;100678.84;3578910;40;20129;-65
2022/04/01 09:44:20;;;;;;;4.97;2.97;;;;;;;2.65;70.48;100687.53;3580475;40;20044;-63
2022/04/01 09:46:59;;;;;;;5.72;3.08;;;;;;;2.67;71.24;100699.84;3573103;40;20044;-64
2022/04/01 09:49:44;;;;;;;4.75;3.20;;;;;;;2.68;70.26;100692.75;3577304;40;20504;-63
2022/04/01 09:52:14;;;;;;;3.92;2.78;;;;;;;2.71;71.24;100690.84;3567292;39;22611;-65
2022/04/01 09:54:56;;;;;;;6.38;3.10;;;;;;;2.78;70.46;100691.53;3579385;39;20055;-63
2022/04/01 09:57:24;;;;;;;4.78;2.67;;;;;;;2.73;69.49;100701.44;3582709;40;20060;-65
2022/04/01 09:59:52;;;;;;;4.63;2.35;;;;;;;2.71;69.73;100701.47;3576431;40;20391;-64
2022/04/01 10:02:20;;;;;;;2.80;2.60;;;;;;;2.75;69.95;100702.25;3576961;40;20125;-65
2022/04/01 10:04:46;;;;;;;3.70;2.55;;;;;;;2.81;70.26;100696.72;3577986;39;20046;-63
2022/04/01 10:07:12;;;;;;;2.80;2.38;;;;;;;2.80;69.59;100702.97;3574303;39;20156;-65
2022/04/01 10:09:40;;;;;;;3.80;2.78;;;;;;;2.79;69.96;100703.88;3579205;40;20066;-63
2022/04/01 10:12:13;;;;;;;4.55;2.97;;;;;;;2.80;70.43;100700.31;3577729;39;20066;-65
2022/04/01 10:14:40;;;;;;;;;;;;;;;2.16;70.12;100601.50;3584296;39;20052;-63
2022/04/01 10:17:11;;;;;;;5.78;2.55;;;;;;;2.74;69.79;100695.19;3577622;39;20635;-65
2022/04/01 10:19:43;;;;;;;5.25;2.75;;;;;;;2.77;70.08;100703.94;3580925;40;20048;-64
2022/04/01 10:22:11;;;;;;;2.78;2.47;;;;;;;2.82;70.93;100714.38;3580824;39;20063;-65
2022/04/01 10:25:00;;;;;;;3.45;2.40;;;;;;;2.84;70.33;100709.91;3574293;39;20060;-69
2022/04/01 10:27:40;;;;;;;3.97;2.53;;;;;;;2.83;69.93;100709.97;3576650;40;20430;-67
2022/04/01 10:30:15;;;;;;;4.28;2.97;;;;;;;2.71;70.61;100682.88;3583332;39;20496;-67
2022/04/01 10:32:44;;;;;;;3.95;2.80;;;;;;;2.83;70.29;100705.53;3575958;40;20136;-70
2022/04/01 10:35:32;;;;;;;4.45;2.60;;;;;;;2.84;69.80;100707.25;3582101;39;20113;-68
2022/04/01 10:38:07;;;;;;;4.32;2.60;;;;;;;2.90;69.44;100711.50;3579963;39;20062;-67
2022/04/01 10:40:36;;;;;;;4.03;2.60;;;;;;;2.93;70.34;100720.25;3572039;39;20075;-68
2022/04/01 10:43:17;;;;;;;3.17;2.72;;;;;;;2.91;70.03;100715.88;3576033;40;20324;-67
2022/04/01 10:46:07;;;;;;;4.22;3.20;;;;;;;2.94;69.88;100723.75;3584708;39;20055;-69
2022/04/01 10:51:39;;;;;;;2.67;2.20;;;;;;;2.93;70.07;100725.53;3584678;40;20382;-67
2022/04/01 10:54:13;;;;;;;3.88;2.60;;;;;;;2.96;69.76;100712.19;3571400;39;20118;-67
2022/04/01 10:57:01;;;;;;;3.45;2.80;;;;;;;2.95;68.63;100728.13;3584736;40;20276;-68
2022/04/01 10:59:37;;;;;;;3.90;2.92;;;;;;;3.01;69.77;100725.28;3579530;39;20114;-67
2022/04/01 11:02:07;;;;;;;4.15;3.00;;;;;;;3.07;69.26;100733.06;3582460;39;20103;-67
2022/04/01 11:04:39;;;;;;;4.65;3.15;;;;;;;3.15;68.32;100727.50;3576895;40;20052;-67
2022/04/01 11:07:29;;;;;;;6.55;2.92;;;;;;;3.14;68.73;100736.38;3581904;40;20063;-67
2022/04/01 11:10:23;;;;;;;4.45;3.10;;;;;;;3.16;69.78;100734.56;3560774;40;20159;-67
2022/04/01 11:12:52;;;;;;;3.90;3.10;;;;;;;3.19;67.67;100748.59;3581224;40;20137;-69
2022/04/01 11:18:01;;;;;;;4.60;3.47;;;;;;;3.21;68.02;100743.25;3564392;40;20644;-65
2022/04/01 11:20:31;;;;;;;6.78;3.50;;;;;;;3.23;68.23;100747.56;3564528;40;20084;-65
2022/04/01 11:22:59;;;;;;;6.00;3.40;;;;;;;3.26;68.87;100754.56;3571969;40;20045;-65
2022/04/01 11:25:24;;;;;;;6.03;4.18;;;;;;;3.28;67.06;100750.09;3560778;40;20040;-64
2022/04/01 11:27:56;;;;;;;5.05;3.65;;;;;;;3.31;67.55;100747.34;3561422;40;20418;-65
2022/04/01 11:30:29;;;;;;;5.07;3.92;;;;;;;3.35;67.25;100756.94;3564958;40;20045;-64
2022/04/01 11:32:58;;;;;;;;;;;;;;;3.30;67.25;100756.22;3563431;40;20744;-64
2022/04/01 11:35:33;;;;;;;4.90;3.70;;;;;;;3.33;67.44;100757.91;3560887;40;19929;-63
2022/04/01 11:37:59;;;;;;;5.78;3.80;;;;;;;3.36;67.27;100758.69;3558598;40;20643;-63
2022/04/01 11:40:30;;;;;;;6.22;4.32;;;;;;;3.41;66.77;100756.72;3564004;40;20073;-63
2022/04/01 11:43:14;;;;;;;6.40;3.60;;;;;;;3.37;67.32;100748.94;3547878;40;21123;-64
2022/04/01 11:45:58;;;;;;;4.97;3.70;;;;;;;3.38;67.77;100762.16;3560942;40;20048;-63
2022/04/01 11:48:41;;;;;;;3.97;3.53;;;;;;;3.44;68.49;100761.09;3567363;40;20393;-63
2022/04/01 11:51:21;;;;;;;5.32;3.88;;;;;;;3.44;67.88;100753.97;3563920;40;20073;-64
2022/04/01 11:53:53;;;;;;;4.90;3.90;;;;;;;3.32;67.72;100734.91;3565114;40;20421;-63
2022/04/01 11:56:22;;;;;;;5.57;4.18;;;;;;;3.48;68.12;100763.56;3558777;40;20053;-63
2022/04/01 11:58:53;;;;;;;6.32;4.35;;;;;;;3.51;68.13;100751.97;3560653;40;20477;-62
2022/04/01 12:01:29;;;;;;;5.25;3.97;;;;;;;3.52;67.52;100766.13;3563584;40;20056;-64
2022/04/01 12:04:11;;;;;;;9.75;4.45;;;;;;;3.37;68.54;100744.47;3561031;40;20824;-64
2022/04/01 12:09:33;;;;;;;5.47;4.20;;;;;;;3.44;67.92;100767.25;3568380;40;20052;-64